createdAt,value
2018-10-11T00:02:05.780Z,30.43
2018-10-11T00:04:33.801Z,30.60
2018-10-11T00:07:01.750Z,33.07
2018-10-11T00:09:29.716Z,29.53
2018-10-11T00:11:57.670Z,29.40
2018-10-11T00:14:25.658Z,31.93
2018-10-11T00:16:53.665Z,28.27
2018-10-11T00:19:21.736Z,31.47
2018-10-11T00:21:49.692Z,32.80
2018-10-11T00:24:17.736Z,33.23
2018-10-11T00:26:45.684Z,34.33
2018-10-11T00:29:13.942Z,31.70
2018-10-11T00:31:41.855Z,30.83
2018-10-11T00:34:09.990Z,30.10
2018-10-11T00:36:37.969Z,29.57
2018-10-11T00:39:07.272Z,29.70
2018-10-11T00:41:35.399Z,32.53
2018-10-11T00:44:03.557Z,30.87
2018-10-11T00:46:31.517Z,30.43
2018-10-11T00:48:59.464Z,29.77
2018-10-11T00:51:27.399Z,33.10
2018-10-11T00:53:55.577Z,30.50
2018-10-11T00:56:23.536Z,29.60
2018-10-11T00:58:51.560Z,29.57
2018-10-11T01:01:19.451Z,25.63
2018-10-11T01:03:47.399Z,30.43
2018-10-11T01:06:15.347Z,31.63
2018-10-11T01:08:43.305Z,31.87
2018-10-11T01:11:11.247Z,31.50
2018-10-11T01:13:39.636Z,28.27
2018-10-11T01:16:07.563Z,33.53
2018-10-11T01:18:35.537Z,31.40
2018-10-11T01:21:03.518Z,30.10
2018-10-11T01:23:31.441Z,31.00
2018-10-11T01:25:59.467Z,28.23
2018-10-11T01:28:27.395Z,29.90
2018-10-11T01:31:01.042Z,31.33
2018-10-11T01:33:28.990Z,32.20
2018-10-11T01:35:56.965Z,29.97
2018-10-11T01:38:24.941Z,31.77
2018-10-11T01:40:52.913Z,27.57
2018-10-11T01:43:20.833Z,32.97
2018-10-11T01:45:48.855Z,28.60
2018-10-11T01:48:16.858Z,29.87
2018-10-11T01:50:44.833Z,26.43
2018-10-11T01:53:12.795Z,28.30
2018-10-11T01:55:40.761Z,31.10
2018-10-11T01:58:08.672Z,30.43
2018-10-11T02:00:36.919Z,33.97
2018-10-11T02:03:04.854Z,33.23
2018-10-11T02:05:32.842Z,32.13
2018-10-11T02:08:00.818Z,29.87
2018-10-11T02:10:29.204Z,36.43
2018-10-11T02:12:58.290Z,31.10
2018-10-11T02:15:27.217Z,25.87
2018-10-11T02:17:55.335Z,28.13
2018-10-11T02:20:23.360Z,27.53
2018-10-11T02:22:51.274Z,23.57
2018-10-11T02:25:19.256Z,27.40
2018-10-11T02:27:47.221Z,29.07
2018-10-11T02:30:15.221Z,25.90
2018-10-11T02:32:43.468Z,28.20
2018-10-11T02:35:12.263Z,29.90
2018-10-11T02:37:40.755Z,30.80
2018-10-11T02:40:08.880Z,30.97
2018-10-11T02:42:36.854Z,31.80
2018-10-11T02:45:05.278Z,30.40
2018-10-11T02:47:33.259Z,28.67
2018-10-11T02:50:01.253Z,32.20
2018-10-11T02:52:29.256Z,32.50
2018-10-11T02:54:57.275Z,31.43
2018-10-11T02:57:36.470Z,30.27
2018-10-11T03:00:04.913Z,32.90
2018-10-11T03:02:33.758Z,33.03
2018-10-11T03:05:01.761Z,30.73
2018-10-11T03:07:30.122Z,31.17
2018-10-11T03:09:58.964Z,34.73
2018-10-11T03:12:26.937Z,35.13
2018-10-11T03:14:54.929Z,38.30
2018-10-11T03:17:22.954Z,33.40
2018-10-11T03:19:50.943Z,34.40
2018-10-11T03:22:19.926Z,35.43
2018-10-11T03:24:47.875Z,41.47
2018-10-11T03:27:16.296Z,31.47
2018-10-11T03:29:44.255Z,31.10
2018-10-11T03:32:12.627Z,32.97
2018-10-11T03:34:40.556Z,38.07
2018-10-11T03:37:08.581Z,33.30
2018-10-11T03:39:36.537Z,36.03
2018-10-11T03:42:04.525Z,34.77
2018-10-11T03:44:32.549Z,30.20
2018-10-11T03:47:00.743Z,33.00
2018-10-11T03:49:28.699Z,36.97
2018-10-11T03:51:56.995Z,39.20
2018-10-11T03:54:25.214Z,36.50
2018-10-11T03:56:53.218Z,38.07
2018-10-11T03:59:21.229Z,37.50
2018-10-11T04:01:49.304Z,37.10
2018-10-11T04:04:17.311Z,33.90
2018-10-11T04:06:45.357Z,33.07
2018-10-11T04:09:13.341Z,32.30
2018-10-11T04:11:41.451Z,31.20
2018-10-11T04:14:09.435Z,26.80
2018-10-11T04:16:37.756Z,34.77
2018-10-11T04:19:06.159Z,38.13
2018-10-11T04:21:34.296Z,37.90
2018-10-11T04:24:02.384Z,36.83
2018-10-11T04:26:30.573Z,39.30
2018-10-11T04:28:58.539Z,37.07
2018-10-11T04:31:26.737Z,28.73
2018-10-11T04:33:54.970Z,32.23
2018-10-11T04:36:23.337Z,33.00
2018-10-11T04:38:51.548Z,37.20
2018-10-11T04:41:19.998Z,34.30
2018-10-11T04:43:48.205Z,36.37
2018-10-11T04:46:16.575Z,36.37
2018-10-11T04:48:44.925Z,34.93
2018-10-11T04:51:13.279Z,36.03
2018-10-11T04:53:41.729Z,38.10
2018-10-11T04:56:10.215Z,37.07
2018-10-11T04:58:38.596Z,40.57
2018-10-11T05:01:07.195Z,36.67
2018-10-11T05:03:35.655Z,35.83
2018-10-11T05:06:04.406Z,33.00
2018-10-11T05:08:32.816Z,33.17
2018-10-11T05:11:01.257Z,40.53
2018-10-11T05:13:36.355Z,40.97
2018-10-11T05:16:04.914Z,33.67
2018-10-11T05:18:34.331Z,35.77
2018-10-11T05:21:02.653Z,35.60
2018-10-11T05:23:31.136Z,40.30
2018-10-11T05:25:59.640Z,40.53
2018-10-11T05:28:28.054Z,39.33
2018-10-11T05:30:56.515Z,41.20
2018-10-11T05:33:25.283Z,41.23
2018-10-11T05:35:53.613Z,34.63
2018-10-11T05:38:22.133Z,41.37
2018-10-11T05:40:50.514Z,38.33
2018-10-11T05:43:19.114Z,40.97
2018-10-11T05:45:55.000Z,34.50
2018-10-11T05:48:24.323Z,34.67
2018-10-11T05:50:52.918Z,38.13
2018-10-11T05:53:21.480Z,45.07
2018-10-11T05:55:50.403Z,35.30
2018-10-11T05:58:19.673Z,37.00
2018-10-11T06:00:48.013Z,35.73
2018-10-11T06:03:16.532Z,32.80
2018-10-11T06:05:45.077Z,36.10
2018-10-11T06:08:13.613Z,37.57
2018-10-11T06:10:43.392Z,30.23
2018-10-11T06:13:12.096Z,29.50
2018-10-11T06:15:41.054Z,28.27
2018-10-11T06:18:10.685Z,25.83
2018-10-11T06:20:39.180Z,27.23
2018-10-11T06:23:07.821Z,24.20
2018-10-11T06:25:36.354Z,24.13
2018-10-11T06:28:05.020Z,24.40
2018-10-11T06:30:34.525Z,22.17
2018-10-11T06:33:03.173Z,21.80
2018-10-11T06:35:31.993Z,21.37
2018-10-11T06:38:01.311Z,23.90
2018-10-11T06:40:29.881Z,20.03
2018-10-11T06:42:58.734Z,21.53
2018-10-11T06:45:27.322Z,20.97
2018-10-11T06:47:59.208Z,20.80
2018-10-11T06:50:27.775Z,21.07
2018-10-11T06:52:56.629Z,24.27
2018-10-11T06:55:25.028Z,35.47
2018-10-11T06:57:53.469Z,32.10
2018-10-11T07:00:21.848Z,36.87
2018-10-11T07:02:50.385Z,39.43
2018-10-11T07:05:18.812Z,45.43
2018-10-11T07:07:47.328Z,44.10
2018-10-11T07:10:15.719Z,34.53
2018-10-11T07:12:44.439Z,25.57
2018-10-11T07:15:12.900Z,30.73
2018-10-11T07:17:41.350Z,26.53
2018-10-11T07:20:09.906Z,26.00
2018-10-11T07:22:38.427Z,28.93
2018-10-11T07:25:06.960Z,25.27
2018-10-11T07:27:35.388Z,25.90
2018-10-11T07:30:04.072Z,22.90
2018-10-11T07:32:32.835Z,21.90
2018-10-11T07:35:01.464Z,22.83
2018-10-11T07:37:29.796Z,22.47
2018-10-11T07:39:58.413Z,23.07
2018-10-11T07:42:26.949Z,23.77
2018-10-11T07:44:55.500Z,23.87
2018-10-11T07:47:23.807Z,24.27
2018-10-11T07:49:52.280Z,22.70
2018-10-11T07:52:20.932Z,22.93
2018-10-11T07:54:50.148Z,22.97
2018-10-11T07:57:18.594Z,23.57
2018-10-11T07:59:47.059Z,22.60
2018-10-11T08:02:15.441Z,22.90
2018-10-11T08:04:43.960Z,22.53
2018-10-11T08:07:12.345Z,23.57
2018-10-11T08:09:40.760Z,22.63
2018-10-11T08:12:09.398Z,23.47
2018-10-11T08:14:37.927Z,22.50
2018-10-11T08:17:06.927Z,24.47
2018-10-11T08:19:35.800Z,24.50
2018-10-11T08:22:03.987Z,25.90
2018-10-11T08:24:32.568Z,25.63
2018-10-11T08:27:01.031Z,23.70
2018-10-11T08:29:29.506Z,24.93
2018-10-11T08:31:57.859Z,24.67
2018-10-11T08:34:26.261Z,25.40
2018-10-11T08:36:54.644Z,27.60
2018-10-11T08:39:23.098Z,25.97
2018-10-11T08:41:51.899Z,24.30
2018-10-11T08:44:20.457Z,25.30
2018-10-11T08:46:48.859Z,24.37
2018-10-11T08:49:17.344Z,25.67
2018-10-11T08:51:45.802Z,26.70
2018-10-11T08:54:19.787Z,24.27
2018-10-11T08:56:48.321Z,25.30
2018-10-11T08:59:16.937Z,25.40
2018-10-11T09:01:45.380Z,23.63
2018-10-11T09:04:14.020Z,24.97
2018-10-11T09:06:42.419Z,23.20
2018-10-11T09:09:11.082Z,22.53
2018-10-11T09:11:39.471Z,21.30
2018-10-11T09:14:08.000Z,20.93
2018-10-11T09:16:36.622Z,20.20
2018-10-11T09:19:05.321Z,21.00
2018-10-11T09:21:33.698Z,21.57
2018-10-11T09:24:02.109Z,16.30
2018-10-11T09:26:30.680Z,16.90
2018-10-11T09:28:59.062Z,19.67
2018-10-11T09:31:27.563Z,17.13
2018-10-11T09:33:55.979Z,17.90
2018-10-11T09:36:24.469Z,17.50
2018-10-11T09:38:53.138Z,17.23
2018-10-11T09:41:21.579Z,16.73
2018-10-11T09:43:50.019Z,16.93
2018-10-11T09:46:18.458Z,16.83
2018-10-11T09:48:47.288Z,17.63
2018-10-11T09:51:15.928Z,17.73
2018-10-11T09:53:44.340Z,17.30
2018-10-11T09:56:12.788Z,16.00
2018-10-11T09:58:41.220Z,16.97
2018-10-11T10:01:15.006Z,16.40
2018-10-11T10:03:43.347Z,18.50
2018-10-11T10:06:11.809Z,17.47
2018-10-11T10:08:40.151Z,17.90
2018-10-11T10:11:08.695Z,17.17
2018-10-11T10:13:37.209Z,18.90
2018-10-11T10:16:05.747Z,17.73
2018-10-11T10:18:34.276Z,16.87
2018-10-11T10:21:03.111Z,17.07
2018-10-11T10:23:31.507Z,17.03
2018-10-11T10:26:00.166Z,16.00
2018-10-11T10:28:28.612Z,15.93
2018-10-11T10:30:57.149Z,16.37
2018-10-11T10:33:25.971Z,15.30
2018-10-11T10:35:54.516Z,15.37
2018-10-11T10:38:23.471Z,16.53
2018-10-11T10:40:52.249Z,16.23
2018-10-11T10:43:20.890Z,15.47
2018-10-11T10:45:49.639Z,15.57
2018-10-11T10:48:18.112Z,14.57
2018-10-11T10:50:46.532Z,14.17
2018-10-11T10:53:14.966Z,14.07
2018-10-11T10:55:43.444Z,15.77
2018-10-11T10:58:11.986Z,14.07
2018-10-11T11:00:40.366Z,13.40
2018-10-11T11:03:08.864Z,14.90
2018-10-11T11:05:37.428Z,14.00
2018-10-11T11:08:06.146Z,13.73
2018-10-11T11:10:34.618Z,14.57
2018-10-11T11:13:03.162Z,14.10
2018-10-11T11:15:31.706Z,13.57
2018-10-11T11:18:00.392Z,13.13
2018-10-11T11:20:28.945Z,14.33
2018-10-11T11:22:57.504Z,13.80
2018-10-11T11:25:25.971Z,13.70
2018-10-11T11:27:54.502Z,14.67
2018-10-11T11:30:23.085Z,13.97
2018-10-11T11:32:51.514Z,13.80
2018-10-11T11:35:20.153Z,15.00
2018-10-11T11:37:48.614Z,14.57
2018-10-11T11:40:17.077Z,15.70
2018-10-11T11:42:45.558Z,14.37
2018-10-11T11:45:14.001Z,15.77
2018-10-11T11:47:42.450Z,14.10
2018-10-11T11:50:10.962Z,17.13
2018-10-11T11:52:39.418Z,14.87
2018-10-11T11:55:07.882Z,15.77
2018-10-11T11:57:36.503Z,14.63
2018-10-11T12:00:05.346Z,14.60
2018-10-11T12:02:34.132Z,16.03
2018-10-11T12:05:02.541Z,14.93
2018-10-11T12:07:31.114Z,16.70
2018-10-11T12:09:59.515Z,15.83
2018-10-11T12:13:15.693Z,17.47
2018-10-11T12:15:44.972Z,15.73
2018-10-11T12:18:13.572Z,15.00
2018-10-11T12:20:42.574Z,14.77
2018-10-11T12:23:12.022Z,17.90
2018-10-11T12:25:40.513Z,13.60
2018-10-11T12:28:08.989Z,14.43
2018-10-11T12:30:37.460Z,16.13
2018-10-11T12:33:06.102Z,14.43
2018-10-11T12:35:34.592Z,15.30
2018-10-11T12:38:03.073Z,15.73
2018-10-11T12:40:31.513Z,15.73
2018-10-11T12:42:59.952Z,21.17
2018-10-11T12:45:28.456Z,14.83
2018-10-11T12:47:56.995Z,15.43
2018-10-11T12:50:25.562Z,14.63
2018-10-11T12:52:54.068Z,15.37
2018-10-11T12:55:22.636Z,15.33
2018-10-11T12:57:51.060Z,15.43
2018-10-11T13:00:19.698Z,14.83
2018-10-11T13:02:48.208Z,16.13
2018-10-11T13:05:16.792Z,16.40
2018-10-11T13:07:45.401Z,14.23
2018-10-11T13:10:13.931Z,14.10
2018-10-11T13:12:42.414Z,14.23
2018-10-11T13:15:11.075Z,15.13
2018-10-11T13:17:42.814Z,15.87
2018-10-11T13:20:08.894Z,15.47
2018-10-11T13:22:37.746Z,15.57
2018-10-11T13:25:06.445Z,14.73
2018-10-11T13:27:34.954Z,15.00
2018-10-11T13:30:03.496Z,14.70
2018-10-11T13:32:32.036Z,14.43
2018-10-11T13:35:00.560Z,14.87
2018-10-11T13:37:29.066Z,15.63
2018-10-11T13:39:58.092Z,15.90
2018-10-11T13:42:26.112Z,15.63
2018-10-11T13:44:54.717Z,14.43
2018-10-11T13:47:23.390Z,13.33
2018-10-11T13:49:52.055Z,16.17
2018-10-11T13:52:22.514Z,14.73
2018-10-11T13:54:49.072Z,14.33
2018-10-11T13:57:17.594Z,14.67
2018-10-11T13:59:45.994Z,14.57
2018-10-11T14:02:14.570Z,14.73
2018-10-11T14:04:43.367Z,13.50
2018-10-11T14:07:11.940Z,14.57
2018-10-11T14:09:40.479Z,14.00
2018-10-11T14:12:09.081Z,13.47
2018-10-11T14:14:44.032Z,14.00
2018-10-11T14:17:12.596Z,14.97
2018-10-11T14:19:41.428Z,13.67
2018-10-11T14:22:10.034Z,13.83
2018-10-11T14:24:38.439Z,13.63
2018-10-11T14:27:06.912Z,13.60
2018-10-11T14:29:35.412Z,12.40
2018-10-11T14:32:03.956Z,13.50
2018-10-11T14:34:32.493Z,14.27
2018-10-11T14:37:01.522Z,11.97
2018-10-11T14:39:29.931Z,12.43
2018-10-11T14:41:58.513Z,13.70
2018-10-11T14:44:27.236Z,12.60
2018-10-11T14:46:58.841Z,12.40
2018-10-11T14:49:27.333Z,12.77
2018-10-11T14:51:55.901Z,17.03
2018-10-11T14:54:24.528Z,12.93
2018-10-11T14:56:53.153Z,12.10
2018-10-11T14:59:21.762Z,11.97
2018-10-11T15:01:50.397Z,11.80
2018-10-11T15:04:18.816Z,13.63
2018-10-11T15:06:47.493Z,15.10
2018-10-11T15:09:16.071Z,11.93
2018-10-11T15:11:44.602Z,15.17
2018-10-11T15:14:13.039Z,12.73
2018-10-11T15:16:41.695Z,12.30
2018-10-11T15:19:10.298Z,12.30
2018-10-11T15:21:39.165Z,11.37
2018-10-11T15:24:08.032Z,11.90
2018-10-11T15:26:36.494Z,13.23
2018-10-11T15:29:05.557Z,12.40
2018-10-11T15:31:34.093Z,11.57
2018-10-11T15:34:02.772Z,11.80
2018-10-11T15:36:31.375Z,11.80
2018-10-11T15:39:00.085Z,11.97
2018-10-11T15:41:28.698Z,11.70
2018-10-11T15:43:57.449Z,11.90
2018-10-11T15:46:26.102Z,10.63
2018-10-11T15:48:54.807Z,11.70
2018-10-11T15:51:23.490Z,11.23
2018-10-11T15:53:52.062Z,11.10
2018-10-11T15:56:20.749Z,10.43
2018-10-11T15:58:49.500Z,11.23
2018-10-11T16:01:17.983Z,11.20
2018-10-11T16:03:46.571Z,11.07
2018-10-11T16:06:15.086Z,12.13
2018-10-11T16:08:43.643Z,10.60
2018-10-11T16:11:12.141Z,10.30
2018-10-11T16:13:40.729Z,12.17
2018-10-11T16:16:09.320Z,12.00
2018-10-11T16:18:38.302Z,12.40
2018-10-11T16:21:13.340Z,11.13
2018-10-11T16:23:41.821Z,12.23
2018-10-11T16:26:10.221Z,14.40
2018-10-11T16:28:38.741Z,12.10
2018-10-11T16:31:07.303Z,11.67
2018-10-11T16:33:35.804Z,12.20
2018-10-11T16:36:04.303Z,12.47
2018-10-11T16:38:32.965Z,11.57
2018-10-11T16:41:01.482Z,11.80
2018-10-11T16:43:32.526Z,11.57
2018-10-11T16:46:01.165Z,12.50
2018-10-11T16:48:29.798Z,11.93
2018-10-11T16:50:58.266Z,11.47
2018-10-11T16:53:26.824Z,11.73
2018-10-11T16:55:55.364Z,13.30
2018-10-11T16:58:24.077Z,11.97
2018-10-11T17:00:52.623Z,12.90
2018-10-11T17:03:21.471Z,12.00
2018-10-11T17:05:50.066Z,12.10
2018-10-11T17:08:19.243Z,10.83
2018-10-11T17:10:48.009Z,11.43
2018-10-11T17:13:16.443Z,11.07
2018-10-11T17:15:45.106Z,10.67
2018-10-11T17:18:13.777Z,10.60
2018-10-11T17:20:42.321Z,14.97
2018-10-11T17:23:10.804Z,10.87
2018-10-11T17:25:39.448Z,10.73
2018-10-11T17:28:08.004Z,11.20
2018-10-11T17:30:36.485Z,11.37
2018-10-11T17:33:04.923Z,11.43
2018-10-11T17:35:33.530Z,9.83
2018-10-11T17:38:01.982Z,13.33
2018-10-11T17:40:30.483Z,10.40
2018-10-11T17:42:59.129Z,11.00
2018-10-11T17:45:28.461Z,13.07
2018-10-11T17:47:57.010Z,12.03
2018-10-11T17:50:25.815Z,9.87
2018-10-11T17:52:54.383Z,13.77
2018-10-11T17:55:22.981Z,10.30
2018-10-11T17:57:51.604Z,11.07
2018-10-11T18:00:20.227Z,10.63
2018-10-11T18:02:48.826Z,11.07
2018-10-11T18:05:17.565Z,13.13
2018-10-11T18:07:46.086Z,10.97
2018-10-11T18:10:14.875Z,11.47
2018-10-11T18:12:43.642Z,10.67
2018-10-11T18:15:12.725Z,12.27
2018-10-11T18:17:41.385Z,10.17
2018-10-11T18:20:10.425Z,10.57
2018-10-11T18:22:38.991Z,11.00
2018-10-11T18:25:09.046Z,13.43
2018-10-11T18:27:37.883Z,10.50
2018-10-11T18:30:08.530Z,11.63
2018-10-11T18:32:37.102Z,14.53
2018-10-11T18:35:06.453Z,10.20
2018-10-11T18:37:38.157Z,10.97
2018-10-11T18:40:06.887Z,11.80
2018-10-11T18:42:35.584Z,13.00
2018-10-11T18:45:04.427Z,13.83
2018-10-11T18:47:33.314Z,10.70
2018-10-11T18:50:02.189Z,11.87
2018-10-11T18:52:30.804Z,11.70
2018-10-11T18:54:59.646Z,15.53
2018-10-11T18:57:28.565Z,11.97
2018-10-11T18:59:57.298Z,10.83
2018-10-11T19:02:26.211Z,11.30
2018-10-11T19:04:55.064Z,12.37
2018-10-11T19:07:24.064Z,12.27
2018-10-11T19:09:52.649Z,12.60
2018-10-11T19:12:21.490Z,11.57
2018-10-11T19:14:50.339Z,10.97
2018-10-11T19:17:19.262Z,11.43
2018-10-11T19:19:48.103Z,11.17
2018-10-11T19:22:17.022Z,13.87
2018-10-11T19:24:45.882Z,13.13
2018-10-11T19:27:15.234Z,11.33
2018-10-11T19:29:43.813Z,11.93
2018-10-11T19:32:12.721Z,10.73
2018-10-11T19:34:41.380Z,10.70
2018-10-11T19:37:09.986Z,10.60
2018-10-11T19:39:39.042Z,10.87
2018-10-11T19:42:07.972Z,11.87
2018-10-11T19:44:36.499Z,10.33
2018-10-11T19:47:05.302Z,10.53
2018-10-11T19:49:33.912Z,14.20
2018-10-11T19:52:02.703Z,11.60
2018-10-11T19:54:31.175Z,11.87
2018-10-11T19:56:59.833Z,10.77
2018-10-11T19:59:28.453Z,11.03
2018-10-11T20:01:56.873Z,11.33
2018-10-11T20:04:25.512Z,12.10
2018-10-11T20:06:54.150Z,9.53
2018-10-11T20:09:22.666Z,11.43
2018-10-11T20:11:51.276Z,10.37
2018-10-11T20:14:19.917Z,10.57
2018-10-11T20:16:48.855Z,12.57
2018-10-11T20:19:17.382Z,10.00
2018-10-11T20:21:45.975Z,10.67
2018-10-11T20:24:14.741Z,11.70
2018-10-11T20:26:43.455Z,11.53
2018-10-11T20:29:12.097Z,11.77
2018-10-11T20:31:40.482Z,10.90
2018-10-11T20:34:08.982Z,10.07
2018-10-11T20:36:37.527Z,10.37
2018-10-11T20:39:07.835Z,11.00
2018-10-11T20:41:36.236Z,12.13
2018-10-11T20:44:04.715Z,12.60
2018-10-11T20:46:33.535Z,10.37
2018-10-11T20:49:01.674Z,11.70
2018-10-11T20:51:29.903Z,11.10
2018-10-11T20:53:58.322Z,10.40
2018-10-11T20:56:26.532Z,11.40
2018-10-11T20:58:54.639Z,10.40
2018-10-11T21:01:22.808Z,10.07
2018-10-11T21:03:51.132Z,10.00
2018-10-11T21:06:19.175Z,11.70
2018-10-11T21:08:47.259Z,11.20
2018-10-11T21:11:15.299Z,12.63
2018-10-11T21:13:43.572Z,18.17
2018-10-11T21:16:11.700Z,12.00
2018-10-11T21:18:39.792Z,15.00
2018-10-11T21:21:08.048Z,10.57
2018-10-11T21:23:36.407Z,12.47
2018-10-11T21:26:04.725Z,11.23
2018-10-11T21:28:33.014Z,10.57
2018-10-11T21:31:01.037Z,11.60
2018-10-11T21:33:29.234Z,11.40
2018-10-11T21:35:57.267Z,12.57
2018-10-11T21:38:25.245Z,10.93
2018-10-11T21:40:53.267Z,11.57
2018-10-11T21:43:21.264Z,12.07
2018-10-11T21:45:49.367Z,10.57
2018-10-11T21:48:17.459Z,11.47
2018-10-11T21:50:45.476Z,10.87
2018-10-11T21:53:13.484Z,11.07
2018-10-11T21:55:41.488Z,10.20
2018-10-11T21:58:09.499Z,10.10
2018-10-11T22:00:43.223Z,10.40
2018-10-11T22:03:11.251Z,10.93
2018-10-11T22:05:39.215Z,17.67
2018-10-11T22:08:07.290Z,10.90
2018-10-11T22:10:35.317Z,11.20
2018-10-11T22:13:04.273Z,10.87
2018-10-11T22:15:32.743Z,11.30
2018-10-11T22:18:00.842Z,12.07
2018-10-11T22:20:28.813Z,12.13
2018-10-11T22:22:56.775Z,10.70
2018-10-11T22:25:24.806Z,10.80
2018-10-11T22:27:53.809Z,13.60
2018-10-11T22:30:21.750Z,10.43
2018-10-11T22:32:49.736Z,10.20
2018-10-11T22:35:17.676Z,12.43
2018-10-11T22:37:47.392Z,11.53
2018-10-11T22:40:29.554Z,10.80
2018-10-11T22:42:59.604Z,11.07
2018-10-11T22:45:27.598Z,11.80
2018-10-11T22:47:56.401Z,11.10
2018-10-11T22:50:25.794Z,11.20
2018-10-11T22:52:54.322Z,11.47
2018-10-11T22:55:22.623Z,10.77
2018-10-11T22:57:50.624Z,11.23
2018-10-11T23:00:18.874Z,11.60
2018-10-11T23:02:46.824Z,12.70
2018-10-11T23:05:14.807Z,10.70
2018-10-11T23:07:42.707Z,11.63
2018-10-11T23:10:11.008Z,10.90
2018-10-11T23:12:39.020Z,10.33
2018-10-11T23:15:07.161Z,12.07
2018-10-11T23:17:35.146Z,10.90
2018-10-11T23:20:03.141Z,11.27
2018-10-11T23:22:31.090Z,11.43
2018-10-11T23:24:59.160Z,12.67
2018-10-11T23:27:27.124Z,14.00
2018-10-11T23:29:55.314Z,12.77
2018-10-11T23:32:23.247Z,13.70
2018-10-11T23:34:51.257Z,13.23
2018-10-11T23:37:19.188Z,14.97
2018-10-11T23:39:47.169Z,13.97
2018-10-11T23:42:15.159Z,13.00
2018-10-11T23:44:43.411Z,13.57
2018-10-11T23:47:11.485Z,13.93
2018-10-11T23:49:39.525Z,14.07
2018-10-11T23:52:07.515Z,14.30
2018-10-11T23:54:35.825Z,14.33
2018-10-11T23:57:03.730Z,14.67
2018-10-11T23:59:31.713Z,14.40
